sensor_id;sensor_type;location;lat;lon;timestamp;P1;durP1;ratioP1;P2;durP2;ratioP2
5199;SDS011;2619;47.868;11.892;2023-04-25T00:00:41;4.10;;;2.57;;
5199;SDS011;2619;47.868;11.892;2023-04-25T00:03:06;3.50;;;2.30;;
5199;SDS011;2619;47.868;11.892;2023-04-25T00:05:33;3.47;;;2.10;;
5199;SDS011;2619;47.868;11.892;2023-04-25T00:08:02;2.97;;;2.13;;
5199;SDS011;2619;47.868;11.892;2023-04-25T00:10:28;4.10;;;2.13;;
5199;SDS011;2619;47.868;11.892;2023-04-25T00:12:54;4.23;;;2.33;;
5199;SDS011;2619;47.868;11.892;2023-04-25T00:15:19;5.23;;;2.10;;
5199;SDS011;2619;47.868;11.892;2023-04-25T00:17:45;3.97;;;2.30;;
5199;SDS011;2619;47.868;11.892;2023-04-25T00:20:11;3.90;;;2.00;;
5199;SDS011;2619;47.868;11.892;2023-04-25T00:22:37;4.47;;;2.50;;
5199;SDS011;2619;47.868;11.892;2023-04-25T00:25:05;5.47;;;2.23;;
5199;SDS011;2619;47.868;11.892;2023-04-25T00:27:31;4.00;;;2.00;;
5199;SDS011;2619;47.868;11.892;2023-04-25T00:29:58;3.60;;;1.80;;
5199;SDS011;2619;47.868;11.892;2023-04-25T00:32:23;3.00;;;1.90;;
5199;SDS011;2619;47.868;11.892;2023-04-25T00:34:49;7.37;;;2.90;;
5199;SDS011;2619;47.868;11.892;2023-04-25T00:37:15;4.80;;;2.00;;
5199;SDS011;2619;47.868;11.892;2023-04-25T00:39:40;4.00;;;2.50;;
5199;SDS011;2619;47.868;11.892;2023-04-25T00:42:06;5.87;;;2.27;;
5199;SDS011;2619;47.868;11.892;2023-04-25T00:44:33;3.57;;;2.10;;
5199;SDS011;2619;47.868;11.892;2023-04-25T00:47:00;2.90;;;1.90;;
5199;SDS011;2619;47.868;11.892;2023-04-25T00:49:27;4.10;;;2.30;;
5199;SDS011;2619;47.868;11.892;2023-04-25T00:51:53;3.20;;;1.93;;
5199;SDS011;2619;47.868;11.892;2023-04-25T00:54:18;5.77;;;2.40;;
5199;SDS011;2619;47.868;11.892;2023-04-25T00:56:44;6.80;;;2.47;;
5199;SDS011;2619;47.868;11.892;2023-04-25T00:59:10;4.17;;;2.67;;
5199;SDS011;2619;47.868;11.892;2023-04-25T01:01:36;5.27;;;2.63;;
5199;SDS011;2619;47.868;11.892;2023-04-25T01:04:04;6.03;;;3.10;;
5199;SDS011;2619;47.868;11.892;2023-04-25T01:06:29;4.00;;;2.73;;
5199;SDS011;2619;47.868;11.892;2023-04-25T01:08:55;6.50;;;2.93;;
5199;SDS011;2619;47.868;11.892;2023-04-25T01:11:21;8.97;;;2.77;;
5199;SDS011;2619;47.868;11.892;2023-04-25T01:13:47;3.10;;;2.37;;
5199;SDS011;2619;47.868;11.892;2023-04-25T01:16:13;5.43;;;2.73;;
5199;SDS011;2619;47.868;11.892;2023-04-25T01:18:39;4.80;;;2.50;;
5199;SDS011;2619;47.868;11.892;2023-04-25T01:21:07;3.43;;;2.10;;
5199;SDS011;2619;47.868;11.892;2023-04-25T01:23:37;3.90;;;2.50;;
5199;SDS011;2619;47.868;11.892;2023-04-25T01:26:04;3.23;;;2.13;;
5199;SDS011;2619;47.868;11.892;2023-04-25T01:28:32;3.13;;;2.23;;
5199;SDS011;2619;47.868;11.892;2023-04-25T01:30:58;3.73;;;2.47;;
5199;SDS011;2619;47.868;11.892;2023-04-25T01:33:24;4.50;;;2.53;;
5199;SDS011;2619;47.868;11.892;2023-04-25T01:35:50;4.57;;;2.90;;
5199;SDS011;2619;47.868;11.892;2023-04-25T01:38:16;8.47;;;2.77;;
5199;SDS011;2619;47.868;11.892;2023-04-25T01:40:41;4.40;;;2.23;;
5199;SDS011;2619;47.868;11.892;2023-04-25T01:43:10;4.00;;;1.93;;
5199;SDS011;2619;47.868;11.892;2023-04-25T01:45:37;3.80;;;2.50;;
5199;SDS011;2619;47.868;11.892;2023-04-25T01:48:07;3.57;;;2.70;;
5199;SDS011;2619;47.868;11.892;2023-04-25T01:50:33;5.10;;;2.20;;
5199;SDS011;2619;47.868;11.892;2023-04-25T01:52:59;3.53;;;2.10;;
5199;SDS011;2619;47.868;11.892;2023-04-25T01:55:25;5.27;;;1.83;;
5199;SDS011;2619;47.868;11.892;2023-04-25T01:57:51;4.00;;;2.27;;
5199;SDS011;2619;47.868;11.892;2023-04-25T02:00:16;3.20;;;2.33;;
5199;SDS011;2619;47.868;11.892;2023-04-25T02:02:42;4.33;;;2.67;;
5199;SDS011;2619;47.868;11.892;2023-04-25T02:05:08;4.20;;;2.33;;
5199;SDS011;2619;47.868;11.892;2023-04-25T02:07:33;3.30;;;1.83;;
5199;SDS011;2619;47.868;11.892;2023-04-25T02:09:59;3.77;;;2.27;;
5199;SDS011;2619;47.868;11.892;2023-04-25T02:12:25;4.40;;;1.90;;
5199;SDS011;2619;47.868;11.892;2023-04-25T02:14:51;4.33;;;2.47;;
5199;SDS011;2619;47.868;11.892;2023-04-25T02:17:17;3.17;;;2.00;;
5199;SDS011;2619;47.868;11.892;2023-04-25T02:19:43;3.67;;;2.27;;
5199;SDS011;2619;47.868;11.892;2023-04-25T02:22:08;2.70;;;1.73;;
5199;SDS011;2619;47.868;11.892;2023-04-25T02:24:35;5.70;;;2.37;;
5199;SDS011;2619;47.868;11.892;2023-04-25T02:27:00;5.23;;;1.97;;
5199;SDS011;2619;47.868;11.892;2023-04-25T02:29:26;4.70;;;2.23;;
5199;SDS011;2619;47.868;11.892;2023-04-25T02:31:52;3.03;;;2.10;;
5199;SDS011;2619;47.868;11.892;2023-04-25T02:34:17;5.10;;;2.77;;
5199;SDS011;2619;47.868;11.892;2023-04-25T02:36:43;5.57;;;2.13;;
5199;SDS011;2619;47.868;11.892;2023-04-25T02:39:08;6.83;;;2.40;;
5199;SDS011;2619;47.868;11.892;2023-04-25T02:41:35;4.67;;;2.67;;
5199;SDS011;2619;47.868;11.892;2023-04-25T02:44:00;4.80;;;2.40;;
5199;SDS011;2619;47.868;11.892;2023-04-25T02:46:26;7.43;;;2.00;;
5199;SDS011;2619;47.868;11.892;2023-04-25T02:48:52;3.57;;;1.90;;
5199;SDS011;2619;47.868;11.892;2023-04-25T02:51:17;4.20;;;2.13;;
5199;SDS011;2619;47.868;11.892;2023-04-25T02:53:43;3.40;;;2.67;;
5199;SDS011;2619;47.868;11.892;2023-04-25T02:56:09;4.00;;;2.50;;
5199;SDS011;2619;47.868;11.892;2023-04-25T02:58:35;3.40;;;2.20;;
5199;SDS011;2619;47.868;11.892;2023-04-25T03:01:00;3.20;;;2.10;;
5199;SDS011;2619;47.868;11.892;2023-04-25T03:03:26;3.23;;;2.00;;
5199;SDS011;2619;47.868;11.892;2023-04-25T03:05:51;4.27;;;2.43;;
5199;SDS011;2619;47.868;11.892;2023-04-25T03:08:17;9.67;;;2.53;;
5199;SDS011;2619;47.868;11.892;2023-04-25T03:10:44;3.10;;;2.13;;
5199;SDS011;2619;47.868;11.892;2023-04-25T03:13:10;13.73;;;3.00;;
5199;SDS011;2619;47.868;11.892;2023-04-25T03:15:35;3.40;;;2.10;;
5199;SDS011;2619;47.868;11.892;2023-04-25T03:18:02;2.73;;;1.67;;
5199;SDS011;2619;47.868;11.892;2023-04-25T03:20:27;5.20;;;2.33;;
5199;SDS011;2619;47.868;11.892;2023-04-25T03:22:53;4.67;;;2.40;;
5199;SDS011;2619;47.868;11.892;2023-04-25T03:25:19;4.53;;;2.50;;
5199;SDS011;2619;47.868;11.892;2023-04-25T03:27:44;5.03;;;1.87;;
5199;SDS011;2619;47.868;11.892;2023-04-25T03:30:10;3.53;;;2.27;;
5199;SDS011;2619;47.868;11.892;2023-04-25T03:32:36;2.77;;;1.90;;
5199;SDS011;2619;47.868;11.892;2023-04-25T03:35:02;7.33;;;2.40;;
5199;SDS011;2619;47.868;11.892;2023-04-25T03:37:28;3.00;;;1.80;;
5199;SDS011;2619;47.868;11.892;2023-04-25T03:39:53;3.53;;;2.00;;
5199;SDS011;2619;47.868;11.892;2023-04-25T03:42:19;4.30;;;2.10;;
5199;SDS011;2619;47.868;11.892;2023-04-25T03:44:47;4.47;;;2.23;;
5199;SDS011;2619;47.868;11.892;2023-04-25T03:47:13;4.10;;;2.10;;
5199;SDS011;2619;47.868;11.892;2023-04-25T03:49:39;3.40;;;1.83;;
5199;SDS011;2619;47.868;11.892;2023-04-25T03:52:04;6.43;;;2.20;;
5199;SDS011;2619;47.868;11.892;2023-04-25T03:54:30;4.00;;;2.20;;
5199;SDS011;2619;47.868;11.892;2023-04-25T03:56:56;3.37;;;2.07;;
5199;SDS011;2619;47.868;11.892;2023-04-25T03:59:21;3.13;;;2.03;;
5199;SDS011;2619;47.868;11.892;2023-04-25T04:01:47;3.30;;;1.93;;
5199;SDS011;2619;47.868;11.892;2023-04-25T04:04:12;5.43;;;2.60;;
5199;SDS011;2619;47.868;11.892;2023-04-25T04:06:38;3.30;;;2.10;;
5199;SDS011;2619;47.868;11.892;2023-04-25T04:09:04;3.60;;;2.30;;
5199;SDS011;2619;47.868;11.892;2023-04-25T04:11:34;4.10;;;2.13;;
5199;SDS011;2619;47.868;11.892;2023-04-25T04:14:01;3.87;;;2.30;;
5199;SDS011;2619;47.868;11.892;2023-04-25T04:16:27;3.30;;;1.87;;
5199;SDS011;2619;47.868;11.892;2023-04-25T04:18:52;5.97;;;1.80;;
5199;SDS011;2619;47.868;11.892;2023-04-25T04:21:18;3.17;;;2.30;;
5199;SDS011;2619;47.868;11.892;2023-04-25T04:23:44;4.70;;;2.07;;
5199;SDS011;2619;47.868;11.892;2023-04-25T04:26:09;5.10;;;2.40;;
5199;SDS011;2619;47.868;11.892;2023-04-25T04:28:36;3.83;;;1.77;;
5199;SDS011;2619;47.868;11.892;2023-04-25T04:31:02;3.83;;;2.27;;
5199;SDS011;2619;47.868;11.892;2023-04-25T04:33:28;3.60;;;2.00;;
5199;SDS011;2619;47.868;11.892;2023-04-25T04:35:55;3.90;;;1.73;;
5199;SDS011;2619;47.868;11.892;2023-04-25T04:38:21;8.00;;;2.47;;
5199;SDS011;2619;47.868;11.892;2023-04-25T04:40:47;3.27;;;2.00;;
5199;SDS011;2619;47.868;11.892;2023-04-25T04:43:13;4.37;;;2.00;;
5199;SDS011;2619;47.868;11.892;2023-04-25T04:45:42;4.90;;;2.30;;
5199;SDS011;2619;47.868;11.892;2023-04-25T04:48:08;2.97;;;2.13;;
5199;SDS011;2619;47.868;11.892;2023-04-25T04:50:33;6.40;;;2.57;;
5199;SDS011;2619;47.868;11.892;2023-04-25T04:53:00;3.60;;;2.27;;
5199;SDS011;2619;47.868;11.892;2023-04-25T04:55:26;5.80;;;2.43;;
5199;SDS011;2619;47.868;11.892;2023-04-25T04:57:52;3.73;;;2.10;;
5199;SDS011;2619;47.868;11.892;2023-04-25T05:00:18;6.40;;;2.00;;
5199;SDS011;2619;47.868;11.892;2023-04-25T05:02:43;4.33;;;2.07;;
5199;SDS011;2619;47.868;11.892;2023-04-25T05:05:09;6.37;;;3.80;;
5199;SDS011;2619;47.868;11.892;2023-04-25T05:07:35;6.07;;;3.17;;
5199;SDS011;2619;47.868;11.892;2023-04-25T05:10:00;6.13;;;2.70;;
5199;SDS011;2619;47.868;11.892;2023-04-25T05:12:26;4.67;;;2.57;;
5199;SDS011;2619;47.868;11.892;2023-04-25T05:14:52;5.30;;;2.40;;
5199;SDS011;2619;47.868;11.892;2023-04-25T05:17:17;5.13;;;2.57;;
5199;SDS011;2619;47.868;11.892;2023-04-25T05:19:43;4.93;;;2.83;;
5199;SDS011;2619;47.868;11.892;2023-04-25T05:22:09;4.83;;;2.50;;
5199;SDS011;2619;47.868;11.892;2023-04-25T05:24:34;4.53;;;2.60;;
5199;SDS011;2619;47.868;11.892;2023-04-25T05:27:00;4.37;;;2.10;;
5199;SDS011;2619;47.868;11.892;2023-04-25T05:29:25;4.53;;;2.63;;
5199;SDS011;2619;47.868;11.892;2023-04-25T05:31:51;4.80;;;2.10;;
5199;SDS011;2619;47.868;11.892;2023-04-25T05:34:16;4.60;;;2.43;;
5199;SDS011;2619;47.868;11.892;2023-04-25T05:36:42;4.57;;;3.10;;
5199;SDS011;2619;47.868;11.892;2023-04-25T05:39:07;3.87;;;2.43;;
5199;SDS011;2619;47.868;11.892;2023-04-25T05:41:33;4.53;;;2.40;;
5199;SDS011;2619;47.868;11.892;2023-04-25T05:43:59;5.97;;;2.97;;
5199;SDS011;2619;47.868;11.892;2023-04-25T05:46:25;3.57;;;2.57;;
5199;SDS011;2619;47.868;11.892;2023-04-25T05:48:50;5.23;;;2.10;;
5199;SDS011;2619;47.868;11.892;2023-04-25T05:51:16;4.67;;;2.40;;
5199;SDS011;2619;47.868;11.892;2023-04-25T05:53:43;5.10;;;2.50;;
5199;SDS011;2619;47.868;11.892;2023-04-25T05:56:09;3.73;;;2.00;;
5199;SDS011;2619;47.868;11.892;2023-04-25T05:58:34;6.10;;;3.10;;
5199;SDS011;2619;47.868;11.892;2023-04-25T06:01:00;4.57;;;2.57;;
5199;SDS011;2619;47.868;11.892;2023-04-25T06:03:26;4.60;;;2.50;;
5199;SDS011;2619;47.868;11.892;2023-04-25T06:05:52;4.67;;;2.67;;
5199;SDS011;2619;47.868;11.892;2023-04-25T06:08:17;4.17;;;2.37;;
5199;SDS011;2619;47.868;11.892;2023-04-25T06:10:43;6.77;;;3.03;;
5199;SDS011;2619;47.868;11.892;2023-04-25T06:13:09;7.07;;;2.77;;
5199;SDS011;2619;47.868;11.892;2023-04-25T06:15:35;3.70;;;2.10;;
5199;SDS011;2619;47.868;11.892;2023-04-25T06:18:00;4.20;;;2.53;;
5199;SDS011;2619;47.868;11.892;2023-04-25T06:20:26;8.57;;;2.80;;
5199;SDS011;2619;47.868;11.892;2023-04-25T06:22:52;3.97;;;2.53;;
5199;SDS011;2619;47.868;11.892;2023-04-25T06:25:17;3.30;;;2.10;;
5199;SDS011;2619;47.868;11.892;2023-04-25T06:27:43;3.13;;;1.90;;
5199;SDS011;2619;47.868;11.892;2023-04-25T06:30:09;4.60;;;1.90;;
5199;SDS011;2619;47.868;11.892;2023-04-25T06:32:36;3.03;;;1.50;;
5199;SDS011;2619;47.868;11.892;2023-04-25T06:35:02;4.60;;;1.47;;
5199;SDS011;2619;47.868;11.892;2023-04-25T06:37:28;4.40;;;1.40;;
5199;SDS011;2619;47.868;11.892;2023-04-25T06:39:54;3.70;;;1.60;;
5199;SDS011;2619;47.868;11.892;2023-04-25T06:42:19;3.17;;;1.80;;
5199;SDS011;2619;47.868;11.892;2023-04-25T06:44:45;4.47;;;1.80;;
5199;SDS011;2619;47.868;11.892;2023-04-25T06:47:10;3.13;;;1.67;;
5199;SDS011;2619;47.868;11.892;2023-04-25T06:49:36;2.70;;;1.40;;
5199;SDS011;2619;47.868;11.892;2023-04-25T06:52:02;3.70;;;1.63;;
5199;SDS011;2619;47.868;11.892;2023-04-25T06:54:27;3.17;;;1.90;;
5199;SDS011;2619;47.868;11.892;2023-04-25T06:56:54;3.57;;;1.87;;
5199;SDS011;2619;47.868;11.892;2023-04-25T06:59:20;2.90;;;1.70;;
5199;SDS011;2619;47.868;11.892;2023-04-25T07:01:46;2.80;;;1.73;;
5199;SDS011;2619;47.868;11.892;2023-04-25T07:04:12;4.53;;;1.73;;
5199;SDS011;2619;47.868;11.892;2023-04-25T07:06:37;5.43;;;1.70;;
5199;SDS011;2619;47.868;11.892;2023-04-25T07:09:07;2.80;;;1.90;;
5199;SDS011;2619;47.868;11.892;2023-04-25T07:11:37;6.20;;;1.90;;
5199;SDS011;2619;47.868;11.892;2023-04-25T07:14:02;2.50;;;1.57;;
5199;SDS011;2619;47.868;11.892;2023-04-25T07:16:28;4.27;;;2.27;;
5199;SDS011;2619;47.868;11.892;2023-04-25T07:18:54;5.23;;;2.53;;
5199;SDS011;2619;47.868;11.892;2023-04-25T07:21:20;4.03;;;2.57;;
5199;SDS011;2619;47.868;11.892;2023-04-25T07:23:45;4.23;;;2.57;;
5199;SDS011;2619;47.868;11.892;2023-04-25T07:26:11;8.20;;;3.83;;
5199;SDS011;2619;47.868;11.892;2023-04-25T07:28:37;4.57;;;2.63;;
5199;SDS011;2619;47.868;11.892;2023-04-25T07:31:03;3.20;;;2.30;;
5199;SDS011;2619;47.868;11.892;2023-04-25T07:33:28;4.13;;;2.70;;
5199;SDS011;2619;47.868;11.892;2023-04-25T07:35:54;4.07;;;2.50;;
5199;SDS011;2619;47.868;11.892;2023-04-25T07:38:20;4.10;;;2.47;;
5199;SDS011;2619;47.868;11.892;2023-04-25T07:40:47;3.50;;;2.30;;
5199;SDS011;2619;47.868;11.892;2023-04-25T07:43:13;4.87;;;2.50;;
5199;SDS011;2619;47.868;11.892;2023-04-25T07:45:41;5.47;;;2.20;;
5199;SDS011;2619;47.868;11.892;2023-04-25T07:48:08;3.80;;;2.70;;
5199;SDS011;2619;47.868;11.892;2023-04-25T07:50:33;4.53;;;2.30;;
5199;SDS011;2619;47.868;11.892;2023-04-25T07:52:59;4.13;;;2.10;;
5199;SDS011;2619;47.868;11.892;2023-04-25T07:55:25;3.30;;;2.03;;
5199;SDS011;2619;47.868;11.892;2023-04-25T07:57:50;3.73;;;2.40;;
5199;SDS011;2619;47.868;11.892;2023-04-25T08:00:16;3.83;;;2.50;;
5199;SDS011;2619;47.868;11.892;2023-04-25T08:02:42;4.10;;;2.23;;
5199;SDS011;2619;47.868;11.892;2023-04-25T08:05:08;3.33;;;2.10;;
5199;SDS011;2619;47.868;11.892;2023-04-25T08:07:36;3.73;;;1.80;;
5199;SDS011;2619;47.868;11.892;2023-04-25T08:10:04;3.73;;;1.93;;
5199;SDS011;2619;47.868;11.892;2023-04-25T08:12:30;2.63;;;1.87;;
5199;SDS011;2619;47.868;11.892;2023-04-25T08:14:56;2.90;;;2.00;;
5199;SDS011;2619;47.868;11.892;2023-04-25T08:17:22;5.73;;;1.97;;
5199;SDS011;2619;47.868;11.892;2023-04-25T08:19:47;4.13;;;2.17;;
5199;SDS011;2619;47.868;11.892;2023-04-25T08:22:13;4.53;;;2.00;;
5199;SDS011;2619;47.868;11.892;2023-04-25T08:24:39;3.07;;;1.80;;
5199;SDS011;2619;47.868;11.892;2023-04-25T08:27:05;4.67;;;2.00;;
5199;SDS011;2619;47.868;11.892;2023-04-25T08:29:32;3.43;;;2.20;;
5199;SDS011;2619;47.868;11.892;2023-04-25T08:31:58;5.27;;;2.20;;
5199;SDS011;2619;47.868;11.892;2023-04-25T08:34:24;4.13;;;2.30;;
5199;SDS011;2619;47.868;11.892;2023-04-25T08:36:50;2.87;;;1.90;;
5199;SDS011;2619;47.868;11.892;2023-04-25T08:39:16;4.53;;;2.73;;
5199;SDS011;2619;47.868;11.892;2023-04-25T08:41:42;2.43;;;1.30;;
5199;SDS011;2619;47.868;11.892;2023-04-25T08:44:09;6.07;;;2.00;;
5199;SDS011;2619;47.868;11.892;2023-04-25T08:46:37;2.30;;;1.20;;
5199;SDS011;2619;47.868;11.892;2023-04-25T08:49:05;3.00;;;1.70;;
5199;SDS011;2619;47.868;11.892;2023-04-25T08:51:33;4.23;;;2.10;;
5199;SDS011;2619;47.868;11.892;2023-04-25T08:54:11;6.53;;;1.77;;
5199;SDS011;2619;47.868;11.892;2023-04-25T08:56:38;2.57;;;1.60;;
5199;SDS011;2619;47.868;11.892;2023-04-25T08:59:05;4.57;;;1.80;;
5199;SDS011;2619;47.868;11.892;2023-04-25T09:01:33;3.83;;;2.00;;
5199;SDS011;2619;47.868;11.892;2023-04-25T09:04:00;3.50;;;1.67;;
5199;SDS011;2619;47.868;11.892;2023-04-25T09:06:25;4.70;;;1.70;;
5199;SDS011;2619;47.868;11.892;2023-04-25T09:08:53;4.73;;;1.50;;
5199;SDS011;2619;47.868;11.892;2023-04-25T09:11:19;3.60;;;1.70;;
5199;SDS011;2619;47.868;11.892;2023-04-25T09:13:45;4.90;;;2.00;;
5199;SDS011;2619;47.868;11.892;2023-04-25T09:16:10;5.10;;;2.60;;
5199;SDS011;2619;47.868;11.892;2023-04-25T09:18:36;4.00;;;2.07;;
5199;SDS011;2619;47.868;11.892;2023-04-25T09:21:09;2.80;;;1.73;;
5199;SDS011;2619;47.868;11.892;2023-04-25T09:23:40;2.90;;;2.07;;
5199;SDS011;2619;47.868;11.892;2023-04-25T09:26:07;3.17;;;1.70;;
5199;SDS011;2619;47.868;11.892;2023-04-25T09:28:34;2.50;;;1.30;;
5199;SDS011;2619;47.868;11.892;2023-04-25T09:31:00;2.90;;;1.40;;
5199;SDS011;2619;47.868;11.892;2023-04-25T09:33:32;3.63;;;1.37;;
5199;SDS011;2619;47.868;11.892;2023-04-25T09:36:01;8.27;;;1.60;;
5199;SDS011;2619;47.868;11.892;2023-04-25T09:38:32;2.73;;;1.50;;
5199;SDS011;2619;47.868;11.892;2023-04-25T09:41:05;3.83;;;1.33;;
5199;SDS011;2619;47.868;11.892;2023-04-25T09:43:31;3.10;;;1.10;;
5199;SDS011;2619;47.868;11.892;2023-04-25T09:45:56;3.93;;;1.20;;
5199;SDS011;2619;47.868;11.892;2023-04-25T09:48:25;2.90;;;1.23;;
5199;SDS011;2619;47.868;11.892;2023-04-25T09:51:10;2.10;;;1.20;;
5199;SDS011;2619;47.868;11.892;2023-04-25T09:53:41;3.60;;;1.23;;
5199;SDS011;2619;47.868;11.892;2023-04-25T09:56:15;2.30;;;1.30;;
5199;SDS011;2619;47.868;11.892;2023-04-25T09:58:41;3.43;;;1.43;;
5199;SDS011;2619;47.868;11.892;2023-04-25T10:01:08;3.60;;;2.20;;
5199;SDS011;2619;47.868;11.892;2023-04-25T10:03:39;3.67;;;1.43;;
5199;SDS011;2619;47.868;11.892;2023-04-25T10:06:19;6.70;;;2.73;;
5199;SDS011;2619;47.868;11.892;2023-04-25T10:08:48;2.17;;;1.40;;
5199;SDS011;2619;47.868;11.892;2023-04-25T10:11:16;3.00;;;1.40;;
5199;SDS011;2619;47.868;11.892;2023-04-25T10:13:42;3.70;;;1.83;;
5199;SDS011;2619;47.868;11.892;2023-04-25T10:16:09;4.50;;;2.97;;
5199;SDS011;2619;47.868;11.892;2023-04-25T10:18:35;3.40;;;1.93;;
5199;SDS011;2619;47.868;11.892;2023-04-25T10:21:02;3.90;;;2.00;;
5199;SDS011;2619;47.868;11.892;2023-04-25T10:23:31;6.07;;;2.20;;
5199;SDS011;2619;47.868;11.892;2023-04-25T10:25:59;3.40;;;1.80;;
5199;SDS011;2619;47.868;11.892;2023-04-25T10:28:25;3.50;;;2.27;;
5199;SDS011;2619;47.868;11.892;2023-04-25T10:31:01;3.23;;;1.80;;
5199;SDS011;2619;47.868;11.892;2023-04-25T10:33:33;5.07;;;1.87;;
5199;SDS011;2619;47.868;11.892;2023-04-25T10:36:21;3.50;;;2.10;;
5199;SDS011;2619;47.868;11.892;2023-04-25T10:38:48;3.20;;;2.30;;
5199;SDS011;2619;47.868;11.892;2023-04-25T10:41:19;3.20;;;1.53;;
5199;SDS011;2619;47.868;11.892;2023-04-25T10:43:46;3.40;;;1.63;;
5199;SDS011;2619;47.868;11.892;2023-04-25T10:46:22;3.43;;;1.80;;
5199;SDS011;2619;47.868;11.892;2023-04-25T10:48:53;3.93;;;1.93;;
5199;SDS011;2619;47.868;11.892;2023-04-25T10:51:31;9.07;;;2.77;;
5199;SDS011;2619;47.868;11.892;2023-04-25T10:54:04;4.47;;;2.20;;
5199;SDS011;2619;47.868;11.892;2023-04-25T10:56:38;4.17;;;2.20;;
5199;SDS011;2619;47.868;11.892;2023-04-25T10:59:10;4.63;;;2.13;;
5199;SDS011;2619;47.868;11.892;2023-04-25T11:01:43;4.03;;;2.23;;
5199;SDS011;2619;47.868;11.892;2023-04-25T11:04:20;3.10;;;1.67;;
5199;SDS011;2619;47.868;11.892;2023-04-25T11:09:38;4.37;;;2.23;;
5199;SDS011;2619;47.868;11.892;2023-04-25T11:12:06;3.50;;;2.40;;
5199;SDS011;2619;47.868;11.892;2023-04-25T11:14:33;6.83;;;2.17;;
5199;SDS011;2619;47.868;11.892;2023-04-25T11:16:59;4.20;;;2.03;;
5199;SDS011;2619;47.868;11.892;2023-04-25T11:19:26;3.33;;;1.60;;
5199;SDS011;2619;47.868;11.892;2023-04-25T11:21:56;2.43;;;1.47;;
5199;SDS011;2619;47.868;11.892;2023-04-25T11:24:29;3.10;;;1.87;;
5199;SDS011;2619;47.868;11.892;2023-04-25T11:26:57;4.10;;;1.90;;
5199;SDS011;2619;47.868;11.892;2023-04-25T11:29:27;2.80;;;1.63;;
5199;SDS011;2619;47.868;11.892;2023-04-25T11:31:53;4.70;;;2.33;;
5199;SDS011;2619;47.868;11.892;2023-04-25T11:34:22;3.20;;;1.57;;
5199;SDS011;2619;47.868;11.892;2023-04-25T11:36:49;2.43;;;1.60;;
5199;SDS011;2619;47.868;11.892;2023-04-25T11:39:17;3.60;;;1.33;;
5199;SDS011;2619;47.868;11.892;2023-04-25T11:41:43;2.33;;;1.60;;
5199;SDS011;2619;47.868;11.892;2023-04-25T11:44:09;2.93;;;1.40;;
5199;SDS011;2619;47.868;11.892;2023-04-25T11:46:34;3.30;;;1.60;;
5199;SDS011;2619;47.868;11.892;2023-04-25T11:49:00;2.37;;;1.30;;
5199;SDS011;2619;47.868;11.892;2023-04-25T11:51:27;3.90;;;2.43;;
5199;SDS011;2619;47.868;11.892;2023-04-25T11:53:52;3.87;;;2.03;;
5199;SDS011;2619;47.868;11.892;2023-04-25T11:56:18;2.97;;;1.87;;
5199;SDS011;2619;47.868;11.892;2023-04-25T12:01:46;2.40;;;1.50;;
5199;SDS011;2619;47.868;11.892;2023-04-25T12:04:17;3.40;;;1.70;;
5199;SDS011;2619;47.868;11.892;2023-04-25T12:06:44;2.70;;;1.30;;
5199;SDS011;2619;47.868;11.892;2023-04-25T12:09:14;4.60;;;1.73;;
5199;SDS011;2619;47.868;11.892;2023-04-25T12:14:09;4.13;;;1.60;;
5199;SDS011;2619;47.868;11.892;2023-04-25T12:16:42;3.87;;;1.20;;
5199;SDS011;2619;47.868;11.892;2023-04-25T12:19:09;2.90;;;1.60;;
5199;SDS011;2619;47.868;11.892;2023-04-25T12:21:35;2.50;;;1.50;;
5199;SDS011;2619;47.868;11.892;2023-04-25T12:27:03;2.27;;;1.10;;
5199;SDS011;2619;47.868;11.892;2023-04-25T12:29:30;3.13;;;1.50;;
5199;SDS011;2619;47.868;11.892;2023-04-25T12:31:57;2.50;;;1.17;;
5199;SDS011;2619;47.868;11.892;2023-04-25T12:34:23;4.23;;;1.50;;
5199;SDS011;2619;47.868;11.892;2023-04-25T12:36:50;2.27;;;1.10;;
5199;SDS011;2619;47.868;11.892;2023-04-25T12:39:17;3.33;;;1.40;;
5199;SDS011;2619;47.868;11.892;2023-04-25T12:41:47;4.27;;;1.00;;
5199;SDS011;2619;47.868;11.892;2023-04-25T12:44:13;2.27;;;1.23;;
5199;SDS011;2619;47.868;11.892;2023-04-25T12:46:39;2.20;;;1.13;;
5199;SDS011;2619;47.868;11.892;2023-04-25T12:49:06;2.17;;;1.10;;
5199;SDS011;2619;47.868;11.892;2023-04-25T12:51:33;2.47;;;1.30;;
5199;SDS011;2619;47.868;11.892;2023-04-25T12:53:59;5.00;;;1.50;;
5199;SDS011;2619;47.868;11.892;2023-04-25T12:58:55;2.43;;;1.30;;
5199;SDS011;2619;47.868;11.892;2023-04-25T13:01:21;2.90;;;1.67;;
5199;SDS011;2619;47.868;11.892;2023-04-25T13:03:46;3.20;;;1.30;;
5199;SDS011;2619;47.868;11.892;2023-04-25T13:06:13;2.73;;;1.00;;
5199;SDS011;2619;47.868;11.892;2023-04-25T13:08:39;2.50;;;0.80;;
5199;SDS011;2619;47.868;11.892;2023-04-25T13:11:05;1.70;;;0.80;;
5199;SDS011;2619;47.868;11.892;2023-04-25T13:13:31;3.27;;;1.80;;
5199;SDS011;2619;47.868;11.892;2023-04-25T13:15:57;2.47;;;1.00;;
5199;SDS011;2619;47.868;11.892;2023-04-25T13:18:23;1.90;;;0.90;;
5199;SDS011;2619;47.868;11.892;2023-04-25T13:20:51;5.03;;;1.00;;
5199;SDS011;2619;47.868;11.892;2023-04-25T13:23:18;3.50;;;0.90;;
5199;SDS011;2619;47.868;11.892;2023-04-25T13:25:43;3.13;;;0.97;;
5199;SDS011;2619;47.868;11.892;2023-04-25T13:28:09;1.60;;;0.60;;
5199;SDS011;2619;47.868;11.892;2023-04-25T13:30:35;1.80;;;0.77;;
5199;SDS011;2619;47.868;11.892;2023-04-25T13:33:00;3.10;;;0.87;;
5199;SDS011;2619;47.868;11.892;2023-04-25T13:35:28;1.67;;;0.63;;
5199;SDS011;2619;47.868;11.892;2023-04-25T13:37:54;2.13;;;1.10;;
5199;SDS011;2619;47.868;11.892;2023-04-25T13:40:20;2.10;;;0.97;;
5199;SDS011;2619;47.868;11.892;2023-04-25T13:42:46;1.87;;;0.70;;
5199;SDS011;2619;47.868;11.892;2023-04-25T13:45:11;1.60;;;0.70;;
5199;SDS011;2619;47.868;11.892;2023-04-25T13:47:37;3.50;;;0.77;;
5199;SDS011;2619;47.868;11.892;2023-04-25T13:50:06;1.60;;;0.70;;
5199;SDS011;2619;47.868;11.892;2023-04-25T13:52:32;1.70;;;0.70;;
5199;SDS011;2619;47.868;11.892;2023-04-25T13:54:58;1.60;;;0.60;;
5199;SDS011;2619;47.868;11.892;2023-04-25T13:57:24;1.87;;;0.60;;
5199;SDS011;2619;47.868;11.892;2023-04-25T13:59:50;2.23;;;0.80;;
5199;SDS011;2619;47.868;11.892;2023-04-25T14:02:17;2.73;;;0.90;;
5199;SDS011;2619;47.868;11.892;2023-04-25T14:04:43;1.70;;;0.70;;
5199;SDS011;2619;47.868;11.892;2023-04-25T14:07:08;3.00;;;0.90;;
5199;SDS011;2619;47.868;11.892;2023-04-25T14:09:35;2.30;;;0.60;;
5199;SDS011;2619;47.868;11.892;2023-04-25T14:12:01;1.80;;;0.70;;
5199;SDS011;2619;47.868;11.892;2023-04-25T14:14:27;3.30;;;0.80;;
5199;SDS011;2619;47.868;11.892;2023-04-25T14:16:53;1.73;;;0.70;;
5199;SDS011;2619;47.868;11.892;2023-04-25T14:19:19;1.97;;;0.70;;
5199;SDS011;2619;47.868;11.892;2023-04-25T14:21:45;1.70;;;0.60;;
5199;SDS011;2619;47.868;11.892;2023-04-25T14:24:11;2.43;;;0.70;;
5199;SDS011;2619;47.868;11.892;2023-04-25T14:26:38;1.73;;;0.70;;
5199;SDS011;2619;47.868;11.892;2023-04-25T14:29:04;5.43;;;0.67;;
5199;SDS011;2619;47.868;11.892;2023-04-25T14:31:31;2.53;;;0.60;;
5199;SDS011;2619;47.868;11.892;2023-04-25T14:33:56;1.90;;;0.60;;
5199;SDS011;2619;47.868;11.892;2023-04-25T14:36:22;1.83;;;0.83;;
5199;SDS011;2619;47.868;11.892;2023-04-25T14:38:48;2.00;;;0.87;;
5199;SDS011;2619;47.868;11.892;2023-04-25T14:41:13;2.20;;;1.00;;
5199;SDS011;2619;47.868;11.892;2023-04-25T14:43:39;2.37;;;0.80;;
5199;SDS011;2619;47.868;11.892;2023-04-25T14:46:06;3.53;;;1.10;;
5199;SDS011;2619;47.868;11.892;2023-04-25T14:48:32;2.00;;;0.90;;
5199;SDS011;2619;47.868;11.892;2023-04-25T14:50:58;2.27;;;1.00;;
5199;SDS011;2619;47.868;11.892;2023-04-25T14:53:24;2.60;;;1.57;;
5199;SDS011;2619;47.868;11.892;2023-04-25T14:55:51;2.50;;;1.20;;
5199;SDS011;2619;47.868;11.892;2023-04-25T14:58:17;1.80;;;0.70;;
5199;SDS011;2619;47.868;11.892;2023-04-25T15:00:42;2.93;;;0.67;;
5199;SDS011;2619;47.868;11.892;2023-04-25T15:03:09;1.83;;;0.60;;
5199;SDS011;2619;47.868;11.892;2023-04-25T15:05:36;2.00;;;0.70;;
5199;SDS011;2619;47.868;11.892;2023-04-25T15:08:02;2.20;;;1.00;;
5199;SDS011;2619;47.868;11.892;2023-04-25T15:10:28;2.03;;;0.90;;